sensor_id;sensor_type;location;lat;lon;timestamp;pressure;altitude;pressure_sealevel;temperature;humidity
6565;BME280;3316;44.118;27.258;2024-03-08T00:02:16;101614.66;;;6.16;100.00
6565;BME280;3316;44.118;27.258;2024-03-08T00:04:41;101623.94;;;6.03;100.00
6565;BME280;3316;44.118;27.258;2024-03-08T00:07:07;101624.84;;;6.05;100.00
6565;BME280;3316;44.118;27.258;2024-03-08T00:09:33;101619.59;;;6.04;100.00
6565;BME280;3316;44.118;27.258;2024-03-08T00:11:58;101627.09;;;5.89;100.00
6565;BME280;3316;44.118;27.258;2024-03-08T00:14:24;101613.31;;;5.96;100.00
6565;BME280;3316;44.118;27.258;2024-03-08T00:16:49;101608.47;;;5.77;100.00
6565;BME280;3316;44.118;27.258;2024-03-08T00:19:15;101615.38;;;5.75;100.00
6565;BME280;3316;44.118;27.258;2024-03-08T00:21:40;101602.16;;;5.69;100.00
6565;BME280;3316;44.118;27.258;2024-03-08T00:24:07;101602.44;;;5.79;100.00
6565;BME280;3316;44.118;27.258;2024-03-08T00:26:33;101601.59;;;5.82;100.00
6565;BME280;3316;44.118;27.258;2024-03-08T00:28:58;101596.06;;;5.68;100.00
6565;BME280;3316;44.118;27.258;2024-03-08T00:31:23;101595.88;;;5.61;100.00
6565;BME280;3316;44.118;27.258;2024-03-08T00:33:50;101592.53;;;5.66;100.00
6565;BME280;3316;44.118;27.258;2024-03-08T00:36:16;101590.97;;;5.74;100.00
6565;BME280;3316;44.118;27.258;2024-03-08T00:38:41;101594.63;;;5.81;100.00
6565;BME280;3316;44.118;27.258;2024-03-08T00:41:07;101594.34;;;5.70;100.00
6565;BME280;3316;44.118;27.258;2024-03-08T00:43:32;101492.13;;;5.18;100.00
6565;BME280;3316;44.118;27.258;2024-03-08T00:45:58;101580.41;;;5.70;100.00
6565;BME280;3316;44.118;27.258;2024-03-08T00:48:23;101585.47;;;5.62;100.00
6565;BME280;3316;44.118;27.258;2024-03-08T00:50:49;101582.69;;;5.56;100.00
6565;BME280;3316;44.118;27.258;2024-03-08T00:53:15;101573.31;;;5.64;100.00
6565;BME280;3316;44.118;27.258;2024-03-08T00:55:40;101548.56;;;5.49;100.00
6565;BME280;3316;44.118;27.258;2024-03-08T00:58:06;101581.59;;;5.81;100.00
6565;BME280;3316;44.118;27.258;2024-03-08T01:00:31;101568.00;;;5.60;100.00
6565;BME280;3316;44.118;27.258;2024-03-08T01:02:56;101562.53;;;5.51;100.00
6565;BME280;3316;44.118;27.258;2024-03-08T01:05:23;101522.75;;;5.25;100.00
6565;BME280;3316;44.118;27.258;2024-03-08T01:07:50;101565.13;;;5.49;100.00
6565;BME280;3316;44.118;27.258;2024-03-08T01:10:15;101561.41;;;5.39;100.00
6565;BME280;3316;44.118;27.258;2024-03-08T01:12:41;101580.81;;;5.51;100.00
6565;BME280;3316;44.118;27.258;2024-03-08T01:15:09;101561.59;;;5.47;100.00
6565;BME280;3316;44.118;27.258;2024-03-08T01:17:34;101559.19;;;5.56;100.00
6565;BME280;3316;44.118;27.258;2024-03-08T01:20:00;101533.50;;;5.37;100.00
6565;BME280;3316;44.118;27.258;2024-03-08T01:22:25;101561.59;;;5.47;100.00
6565;BME280;3316;44.118;27.258;2024-03-08T01:24:51;101560.63;;;5.43;100.00
6565;BME280;3316;44.118;27.258;2024-03-08T01:27:16;101536.78;;;5.28;100.00
6565;BME280;3316;44.118;27.258;2024-03-08T01:29:41;101563.13;;;5.39;100.00
6565;BME280;3316;44.118;27.258;2024-03-08T01:32:07;101564.94;;;5.41;100.00
6565;BME280;3316;44.118;27.258;2024-03-08T01:34:33;101568.50;;;5.45;100.00
6565;BME280;3316;44.118;27.258;2024-03-08T01:36:58;101525.69;;;5.38;100.00
6565;BME280;3316;44.118;27.258;2024-03-08T01:39:24;101518.38;;;5.24;100.00
6565;BME280;3316;44.118;27.258;2024-03-08T01:41:50;101564.03;;;5.41;100.00
6565;BME280;3316;44.118;27.258;2024-03-08T01:44:15;101560.31;;;5.31;100.00
6565;BME280;3316;44.118;27.258;2024-03-08T01:46:47;101569.38;;;5.46;100.00
6565;BME280;3316;44.118;27.258;2024-03-08T01:49:13;101555.38;;;5.42;100.00
6565;BME280;3316;44.118;27.258;2024-03-08T01:51:40;101549.94;;;5.34;100.00
6565;BME280;3316;44.118;27.258;2024-03-08T01:54:06;101542.34;;;5.42;100.00
6565;BME280;3316;44.118;27.258;2024-03-08T01:56:36;101570.56;;;5.58;100.00
6565;BME280;3316;44.118;27.258;2024-03-08T01:59:03;101563.66;;;5.60;100.00
6565;BME280;3316;44.118;27.258;2024-03-08T02:01:29;101569.91;;;5.67;100.00
6565;BME280;3316;44.118;27.258;2024-03-08T02:03:54;101558.75;;;5.74;100.00
6565;BME280;3316;44.118;27.258;2024-03-08T02:06:20;101549.75;;;5.61;100.00
6565;BME280;3316;44.118;27.258;2024-03-08T02:08:45;101558.72;;;5.72;100.00
6565;BME280;3316;44.118;27.258;2024-03-08T02:11:12;101579.16;;;5.87;100.00
6565;BME280;3316;44.118;27.258;2024-03-08T02:13:38;101578.88;;;5.78;100.00
6565;BME280;3316;44.118;27.258;2024-03-08T02:16:04;101566.59;;;5.74;100.00
6565;BME280;3316;44.118;27.258;2024-03-08T02:18:30;101580.66;;;5.79;100.00
6565;BME280;3316;44.118;27.258;2024-03-08T02:20:57;101577.91;;;5.73;100.00
6565;BME280;3316;44.118;27.258;2024-03-08T02:23:23;101563.75;;;5.63;100.00
6565;BME280;3316;44.118;27.258;2024-03-08T02:25:50;101578.78;;;5.73;100.00
6565;BME280;3316;44.118;27.258;2024-03-08T02:28:16;101556.72;;;5.62;100.00
6565;BME280;3316;44.118;27.258;2024-03-08T02:30:44;101579.63;;;5.72;100.00
6565;BME280;3316;44.118;27.258;2024-03-08T02:33:13;101580.94;;;5.89;100.00
6565;BME280;3316;44.118;27.258;2024-03-08T02:35:41;101559.19;;;5.89;100.00
6565;BME280;3316;44.118;27.258;2024-03-08T02:38:07;101581.16;;;5.98;100.00
6565;BME280;3316;44.118;27.258;2024-03-08T02:40:33;101565.00;;;5.79;100.00
6565;BME280;3316;44.118;27.258;2024-03-08T02:42:58;101582.50;;;5.83;100.00
6565;BME280;3316;44.118;27.258;2024-03-08T02:45:24;101589.53;;;5.85;100.00
6565;BME280;3316;44.118;27.258;2024-03-08T02:47:49;101551.50;;;5.62;100.00
6565;BME280;3316;44.118;27.258;2024-03-08T02:50:15;101556.59;;;5.56;100.00
6565;BME280;3316;44.118;27.258;2024-03-08T02:52:42;101591.56;;;5.63;100.00
6565;BME280;3316;44.118;27.258;2024-03-08T02:55:08;101587.25;;;5.63;100.00
6565;BME280;3316;44.118;27.258;2024-03-08T02:57:36;101573.00;;;5.52;100.00
6565;BME280;3316;44.118;27.258;2024-03-08T03:00:02;101586.94;;;5.51;100.00
6565;BME280;3316;44.118;27.258;2024-03-08T03:02:29;101585.41;;;5.61;100.00
6565;BME280;3316;44.118;27.258;2024-03-08T03:04:54;101593.13;;;5.56;100.00
6565;BME280;3316;44.118;27.258;2024-03-08T03:07:21;101597.66;;;5.62;100.00
6565;BME280;3316;44.118;27.258;2024-03-08T03:09:46;101577.09;;;5.41;100.00
6565;BME280;3316;44.118;27.258;2024-03-08T03:12:12;101593.06;;;5.53;100.00
6565;BME280;3316;44.118;27.258;2024-03-08T03:14:37;101568.50;;;5.45;100.00
6565;BME280;3316;44.118;27.258;2024-03-08T03:17:06;101558.63;;;5.33;100.00
6565;BME280;3316;44.118;27.258;2024-03-08T03:19:31;101558.63;;;5.33;100.00
6565;BME280;3316;44.118;27.258;2024-03-08T03:21:57;101556.72;;;5.26;100.00
6565;BME280;3316;44.118;27.258;2024-03-08T03:24:22;101585.66;;;5.35;100.00
6565;BME280;3316;44.118;27.258;2024-03-08T03:26:48;101592.38;;;5.26;100.00
6565;BME280;3316;44.118;27.258;2024-03-08T03:29:15;101595.69;;;5.20;100.00
6565;BME280;3316;44.118;27.258;2024-03-08T03:31:42;101588.88;;;5.25;100.00
6565;BME280;3316;44.118;27.258;2024-03-08T03:34:07;101568.16;;;5.31;100.00
6565;BME280;3316;44.118;27.258;2024-03-08T03:36:34;101599.44;;;5.30;100.00
6565;BME280;3316;44.118;27.258;2024-03-08T03:39:00;101583.63;;;5.24;100.00
6565;BME280;3316;44.118;27.258;2024-03-08T03:41:44;101525.22;;;4.86;100.00
6565;BME280;3316;44.118;27.258;2024-03-08T03:44:11;101562.25;;;5.06;100.00
6565;BME280;3316;44.118;27.258;2024-03-08T03:46:36;101586.84;;;5.15;100.00
6565;BME280;3316;44.118;27.258;2024-03-08T03:49:02;101603.69;;;5.26;100.00
6565;BME280;3316;44.118;27.258;2024-03-08T03:51:29;101596.34;;;5.13;100.00
6565;BME280;3316;44.118;27.258;2024-03-08T03:53:54;101607.00;;;5.21;100.00
6565;BME280;3316;44.118;27.258;2024-03-08T03:56:26;101591.44;;;5.24;100.00
6565;BME280;3316;44.118;27.258;2024-03-08T03:58:52;101599.09;;;5.18;100.00
6565;BME280;3316;44.118;27.258;2024-03-08T04:01:17;101578.81;;;5.08;100.00
6565;BME280;3316;44.118;27.258;2024-03-08T04:03:43;101576.78;;;4.96;100.00
6565;BME280;3316;44.118;27.258;2024-03-08T04:06:08;101610.22;;;5.11;100.00
6565;BME280;3316;44.118;27.258;2024-03-08T04:08:34;101591.84;;;5.06;100.00
6565;BME280;3316;44.118;27.258;2024-03-08T04:11:00;101580.06;;;4.89;100.00
6565;BME280;3316;44.118;27.258;2024-03-08T04:13:26;101556.13;;;4.73;100.00
6565;BME280;3316;44.118;27.258;2024-03-08T04:15:51;101601.91;;;4.94;100.00
6565;BME280;3316;44.118;27.258;2024-03-08T04:18:17;101591.47;;;4.93;100.00
6565;BME280;3316;44.118;27.258;2024-03-08T04:20:43;101581.03;;;4.93;100.00
6565;BME280;3316;44.118;27.258;2024-03-08T04:23:08;101607.16;;;4.96;100.00
6565;BME280;3316;44.118;27.258;2024-03-08T04:25:34;101578.03;;;4.79;100.00
6565;BME280;3316;44.118;27.258;2024-03-08T04:27:59;101605.84;;;5.10;100.00
6565;BME280;3316;44.118;27.258;2024-03-08T04:30:25;101606.69;;;5.09;100.00
6565;BME280;3316;44.118;27.258;2024-03-08T04:32:53;101594.72;;;5.17;100.00
6565;BME280;3316;44.118;27.258;2024-03-08T04:35:19;101613.75;;;5.13;100.00
6565;BME280;3316;44.118;27.258;2024-03-08T04:37:45;101615.31;;;5.06;100.00
6565;BME280;3316;44.118;27.258;2024-03-08T04:40:11;101613.34;;;4.99;100.00
6565;BME280;3316;44.118;27.258;2024-03-08T04:42:39;101602.91;;;4.99;100.00
6565;BME280;3316;44.118;27.258;2024-03-08T04:45:06;101611.81;;;5.06;100.00
6565;BME280;3316;44.118;27.258;2024-03-08T04:47:33;101612.72;;;5.08;100.00
6565;BME280;3316;44.118;27.258;2024-03-08T04:49:58;101616.09;;;5.04;100.00
6565;BME280;3316;44.118;27.258;2024-03-08T04:52:24;101621.69;;;5.17;100.00
6565;BME280;3316;44.118;27.258;2024-03-08T04:54:51;101626.88;;;5.16;100.00
6565;BME280;3316;44.118;27.258;2024-03-08T04:57:16;101616.38;;;5.13;100.00
6565;BME280;3316;44.118;27.258;2024-03-08T04:59:43;101605.84;;;5.10;100.00
6565;BME280;3316;44.118;27.258;2024-03-08T05:02:08;101621.03;;;5.24;100.00
6565;BME280;3316;44.118;27.258;2024-03-08T05:04:34;101634.31;;;5.33;100.00
6565;BME280;3316;44.118;27.258;2024-03-08T05:07:01;101626.09;;;5.18;100.00
6565;BME280;3316;44.118;27.258;2024-03-08T05:09:27;101641.09;;;5.27;100.00
6565;BME280;3316;44.118;27.258;2024-03-08T05:11:57;101617.28;;;5.15;100.00
6565;BME280;3316;44.118;27.258;2024-03-08T05:14:24;101609.41;;;5.13;100.00
6565;BME280;3316;44.118;27.258;2024-03-08T05:16:50;101611.66;;;5.01;100.00
6565;BME280;3316;44.118;27.258;2024-03-08T05:19:16;101645.00;;;5.11;100.00
6565;BME280;3316;44.118;27.258;2024-03-08T05:21:46;101649.50;;;5.17;100.00
6565;BME280;3316;44.118;27.258;2024-03-08T05:24:12;101648.81;;;5.22;100.00
6565;BME280;3316;44.118;27.258;2024-03-08T05:26:38;101642.91;;;5.29;100.00
6565;BME280;3316;44.118;27.258;2024-03-08T05:29:04;101625.00;;;5.10;100.00
6565;BME280;3316;44.118;27.258;2024-03-08T05:31:41;101661.00;;;5.23;100.00
6565;BME280;3316;44.118;27.258;2024-03-08T05:34:08;101656.00;;;5.32;100.00
6565;BME280;3316;44.118;27.258;2024-03-08T05:36:35;101649.84;;;5.29;100.00
6565;BME280;3316;44.118;27.258;2024-03-08T05:39:00;101662.06;;;5.30;100.00
6565;BME280;3316;44.118;27.258;2024-03-08T05:41:26;101663.06;;;5.35;100.00
6565;BME280;3316;44.118;27.258;2024-03-08T05:43:51;101649.94;;;5.32;100.00
6565;BME280;3316;44.118;27.258;2024-03-08T05:46:17;101665.13;;;5.48;100.00
6565;BME280;3316;44.118;27.258;2024-03-08T05:48:43;101666.00;;;5.47;100.00
6565;BME280;3316;44.118;27.258;2024-03-08T05:51:09;101669.50;;;5.48;100.00
6565;BME280;3316;44.118;27.258;2024-03-08T05:53:35;101668.53;;;5.44;100.00
6565;BME280;3316;44.118;27.258;2024-03-08T05:56:00;101676.47;;;5.49;100.00
6565;BME280;3316;44.118;27.258;2024-03-08T05:58:27;101673.13;;;5.54;100.00
6565;BME280;3316;44.118;27.258;2024-03-08T06:00:55;101643.97;;;5.36;100.00
6565;BME280;3316;44.118;27.258;2024-03-08T06:03:21;101680.34;;;5.63;100.00
6565;BME280;3316;44.118;27.258;2024-03-08T06:05:50;101676.75;;;5.59;100.00
6565;BME280;3316;44.118;27.258;2024-03-08T06:08:16;101671.53;;;5.59;100.00
6565;BME280;3316;44.118;27.258;2024-03-08T06:10:41;101679.91;;;5.79;100.00
6565;BME280;3316;44.118;27.258;2024-03-08T06:13:07;101678.22;;;5.81;100.00
6565;BME280;3316;44.118;27.258;2024-03-08T06:15:32;101688.41;;;5.72;100.00
6565;BME280;3316;44.118;27.258;2024-03-08T06:17:58;101661.41;;;5.71;100.00
6565;BME280;3316;44.118;27.258;2024-03-08T06:20:23;101675.31;;;5.70;100.00
6565;BME280;3316;44.118;27.258;2024-03-08T06:22:52;101661.19;;;5.64;100.00
6565;BME280;3316;44.118;27.258;2024-03-08T06:25:17;101647.78;;;5.50;100.00
6565;BME280;3316;44.118;27.258;2024-03-08T06:27:43;101678.09;;;5.78;100.00
6565;BME280;3316;44.118;27.258;2024-03-08T06:30:10;101664.09;;;5.74;100.00
6565;BME280;3316;44.118;27.258;2024-03-08T06:32:36;101676.25;;;5.74;100.00
6565;BME280;3316;44.118;27.258;2024-03-08T06:35:03;101674.69;;;5.80;100.00
6565;BME280;3316;44.118;27.258;2024-03-08T06:37:32;101684.78;;;5.99;100.00
6565;BME280;3316;44.118;27.258;2024-03-08T06:39:57;101687.56;;;6.05;100.00
6565;BME280;3316;44.118;27.258;2024-03-08T06:42:23;101657.47;;;6.22;100.00
6565;BME280;3316;44.118;27.258;2024-03-08T06:44:48;101663.56;;;6.21;100.00
6565;BME280;3316;44.118;27.258;2024-03-08T06:47:17;101684.34;;;6.17;100.00
6565;BME280;3316;44.118;27.258;2024-03-08T06:49:43;101659.53;;;5.98;100.00
6565;BME280;3316;44.118;27.258;2024-03-08T06:52:10;101690.63;;;6.23;100.00
6565;BME280;3316;44.118;27.258;2024-03-08T06:54:36;101686.47;;;6.32;100.00
6565;BME280;3316;44.118;27.258;2024-03-08T06:57:04;101688.75;;;6.18;100.00
6565;BME280;3316;44.118;27.258;2024-03-08T06:59:31;101658.38;;;5.87;100.00
6565;BME280;3316;44.118;27.258;2024-03-08T07:01:56;101690.53;;;6.20;100.00
6565;BME280;3316;44.118;27.258;2024-03-08T07:04:22;101690.06;;;6.37;100.00
6565;BME280;3316;44.118;27.258;2024-03-08T07:06:51;101702.06;;;6.28;100.00
6565;BME280;3316;44.118;27.258;2024-03-08T07:09:17;101694.66;;;6.11;100.00
6565;BME280;3316;44.118;27.258;2024-03-08T07:11:43;101705.34;;;6.20;100.00
6565;BME280;3316;44.118;27.258;2024-03-08T07:14:08;101673.16;;;6.22;100.00
6565;BME280;3316;44.118;27.258;2024-03-08T07:16:34;101703.34;;;6.46;100.00
6565;BME280;3316;44.118;27.258;2024-03-08T07:19:01;101699.16;;;6.54;100.00
6565;BME280;3316;44.118;27.258;2024-03-08T07:21:27;101648.97;;;6.29;100.00
6565;BME280;3316;44.118;27.258;2024-03-08T07:23:52;101679.09;;;6.51;100.00
6565;BME280;3316;44.118;27.258;2024-03-08T07:26:26;101690.34;;;6.49;100.00
6565;BME280;3316;44.118;27.258;2024-03-08T07:28:53;101704.97;;;6.78;100.00
6565;BME280;3316;44.118;27.258;2024-03-08T07:31:20;101703.81;;;7.05;100.00
6565;BME280;3316;44.118;27.258;2024-03-08T07:34:00;101702.66;;;7.35;100.00
6565;BME280;3316;44.118;27.258;2024-03-08T07:36:25;101707.38;;;7.52;100.00
6565;BME280;3316;44.118;27.258;2024-03-08T07:38:51;101703.13;;;7.59;100.00
6565;BME280;3316;44.118;27.258;2024-03-08T07:41:16;101677.44;;;7.38;100.00
6565;BME280;3316;44.118;27.258;2024-03-08T07:43:42;101685.81;;;7.20;100.00
6565;BME280;3316;44.118;27.258;2024-03-08T07:46:09;101694.69;;;7.27;100.00
6565;BME280;3316;44.118;27.258;2024-03-08T07:48:35;101705.69;;;7.11;100.00
6565;BME280;3316;44.118;27.258;2024-03-08T07:51:02;101704.50;;;6.97;100.00
6565;BME280;3316;44.118;27.258;2024-03-08T07:53:28;101690.03;;;6.74;100.00
6565;BME280;3316;44.118;27.258;2024-03-08T07:55:53;101691.72;;;6.70;100.00
6565;BME280;3316;44.118;27.258;2024-03-08T07:58:19;101696.50;;;6.89;100.00
6565;BME280;3316;44.118;27.258;2024-03-08T08:00:44;101645.59;;;6.74;100.00
6565;BME280;3316;44.118;27.258;2024-03-08T08:03:10;101700.41;;;7.09;100.00
6565;BME280;3316;44.118;27.258;2024-03-08T08:05:35;101691.94;;;7.22;100.00
6565;BME280;3316;44.118;27.258;2024-03-08T08:08:04;101705.06;;;7.24;100.00
6565;BME280;3316;44.118;27.258;2024-03-08T08:10:32;101699.94;;;7.29;100.00
6565;BME280;3316;44.118;27.258;2024-03-08T08:12:58;101696.97;;;7.12;100.00
6565;BME280;3316;44.118;27.258;2024-03-08T08:15:24;101667.44;;;7.17;100.00
6565;BME280;3316;44.118;27.258;2024-03-08T08:17:49;101693.91;;;7.33;100.00
6565;BME280;3316;44.118;27.258;2024-03-08T08:20:15;101695.72;;;7.35;100.00
6565;BME280;3316;44.118;27.258;2024-03-08T08:22:43;101702.00;;;7.45;100.00
6565;BME280;3316;44.118;27.258;2024-03-08T08:25:09;101705.91;;;7.66;100.00
6565;BME280;3316;44.118;27.258;2024-03-08T08:27:38;101705.00;;;7.64;100.00
6565;BME280;3316;44.118;27.258;2024-03-08T08:30:13;101700.38;;;7.51;100.00
6565;BME280;3316;44.118;27.258;2024-03-08T08:32:39;101697.69;;;7.47;100.00
6565;BME280;3316;44.118;27.258;2024-03-08T08:35:05;101702.31;;;7.61;100.00
6565;BME280;3316;44.118;27.258;2024-03-08T08:37:31;101695.91;;;7.93;100.00
6565;BME280;3316;44.118;27.258;2024-03-08T08:39:57;101637.16;;;7.79;100.00
6565;BME280;3316;44.118;27.258;2024-03-08T08:42:23;101610.50;;;7.54;100.00
6565;BME280;3316;44.118;27.258;2024-03-08T08:44:49;101664.72;;;8.10;100.00
6565;BME280;3316;44.118;27.258;2024-03-08T08:47:16;101705.94;;;8.17;100.00
6565;BME280;3316;44.118;27.258;2024-03-08T08:49:44;101692.22;;;8.33;100.00
6565;BME280;3316;44.118;27.258;2024-03-08T08:52:11;101694.13;;;8.42;100.00
6565;BME280;3316;44.118;27.258;2024-03-08T08:54:37;101693.56;;;8.08;100.00
6565;BME280;3316;44.118;27.258;2024-03-08T08:57:02;101666.66;;;7.69;100.00
6565;BME280;3316;44.118;27.258;2024-03-08T08:59:33;101692.38;;;7.91;100.00
6565;BME280;3316;44.118;27.258;2024-03-08T09:02:03;101703.00;;;7.99;100.00
6565;BME280;3316;44.118;27.258;2024-03-08T09:04:29;101694.09;;;7.88;100.00
6565;BME280;3316;44.118;27.258;2024-03-08T09:06:56;101697.44;;;7.82;100.00
6565;BME280;3316;44.118;27.258;2024-03-08T09:09:22;101688.00;;;7.92;100.00
6565;BME280;3316;44.118;27.258;2024-03-08T09:11:47;101697.75;;;7.99;100.00
6565;BME280;3316;44.118;27.258;2024-03-08T09:14:14;101699.34;;;7.89;100.00
6565;BME280;3316;44.118;27.258;2024-03-08T09:16:40;101701.75;;;7.77;100.00
6565;BME280;3316;44.118;27.258;2024-03-08T09:19:06;101692.03;;;7.70;100.00
6565;BME280;3316;44.118;27.258;2024-03-08T09:21:32;101679.47;;;7.53;100.00
6565;BME280;3316;44.118;27.258;2024-03-08T09:23:58;101686.34;;;7.49;100.00
6565;BME280;3316;44.118;27.258;2024-03-08T09:26:24;101693.63;;;7.62;100.00
6565;BME280;3316;44.118;27.258;2024-03-08T09:28:49;101692.72;;;7.62;100.00
6565;BME280;3316;44.118;27.258;2024-03-08T09:31:15;101686.88;;;7.32;100.00
6565;BME280;3316;44.118;27.258;2024-03-08T09:33:42;101696.00;;;7.52;100.00
6565;BME280;3316;44.118;27.258;2024-03-08T09:36:07;101702.72;;;7.38;100.00
6565;BME280;3316;44.118;27.258;2024-03-08T09:38:33;101699.28;;;7.40;100.00
6565;BME280;3316;44.118;27.258;2024-03-08T09:41:02;101674.69;;;7.32;100.00
6565;BME280;3316;44.118;27.258;2024-03-08T09:43:29;101710.19;;;7.63;100.00
6565;BME280;3316;44.118;27.258;2024-03-08T09:45:55;101672.44;;;7.50;100.00
6565;BME280;3316;44.118;27.258;2024-03-08T09:48:21;101709.28;;;7.61;100.00
6565;BME280;3316;44.118;27.258;2024-03-08T09:50:47;101653.75;;;7.32;100.00
6565;BME280;3316;44.118;27.258;2024-03-08T09:53:13;101680.69;;;7.73;100.00
6565;BME280;3316;44.118;27.258;2024-03-08T09:55:39;101708.66;;;7.74;100.00
6565;BME280;3316;44.118;27.258;2024-03-08T09:58:14;101702.88;;;7.45;100.00
6565;BME280;3316;44.118;27.258;2024-03-08T10:00:58;101661.56;;;7.29;100.00
6565;BME280;3316;44.118;27.258;2024-03-08T10:03:24;101709.22;;;7.56;100.00
6565;BME280;3316;44.118;27.258;2024-03-08T10:05:52;101716.44;;;7.71;100.00
6565;BME280;3316;44.118;27.258;2024-03-08T10:08:17;101687.88;;;7.37;100.00
6565;BME280;3316;44.118;27.258;2024-03-08T10:10:43;101692.13;;;7.32;100.00
6565;BME280;3316;44.118;27.258;2024-03-08T10:13:09;101728.25;;;7.49;100.00
6565;BME280;3316;44.118;27.258;2024-03-08T10:15:36;101712.59;;;7.51;100.00
6565;BME280;3316;44.118;27.258;2024-03-08T10:18:02;101711.50;;;7.40;100.00
6565;BME280;3316;44.118;27.258;2024-03-08T10:20:30;101712.28;;;7.36;100.00
6565;BME280;3316;44.118;27.258;2024-03-08T10:23:03;101682.16;;;7.14;100.00
6565;BME280;3316;44.118;27.258;2024-03-08T10:25:30;101709.38;;;7.22;100.00
6565;BME280;3316;44.118;27.258;2024-03-08T10:27:56;101658.28;;;6.97;100.00
6565;BME280;3316;44.118;27.258;2024-03-08T10:30:22;101713.03;;;7.30;100.00
6565;BME280;3316;44.118;27.258;2024-03-08T10:32:48;101687.34;;;7.11;100.00
6565;BME280;3316;44.118;27.258;2024-03-08T10:35:14;101713.84;;;7.28;100.00
6565;BME280;3316;44.118;27.258;2024-03-08T10:37:50;101713.97;;;7.34;100.00
6565;BME280;3316;44.118;27.258;2024-03-08T10:40:24;101687.50;;;7.18;100.00
6565;BME280;3316;44.118;27.258;2024-03-08T10:45:40;101722.94;;;7.45;100.00
6565;BME280;3316;44.118;27.258;2024-03-08T10:48:28;101717.72;;;7.45;100.00
6565;BME280;3316;44.118;27.258;2024-03-08T10:50:59;101705.53;;;7.47;100.00
6565;BME280;3316;44.118;27.258;2024-03-08T10:53:26;101709.34;;;7.64;100.00
6565;BME280;3316;44.118;27.258;2024-03-08T10:55:53;101700.72;;;7.69;100.00
6565;BME280;3316;44.118;27.258;2024-03-08T10:58:21;101688.41;;;7.65;100.00
6565;BME280;3316;44.118;27.258;2024-03-08T11:00:48;101678.56;;;7.51;100.00
6565;BME280;3316;44.118;27.258;2024-03-08T11:06:17;101702.41;;;7.67;100.00
6565;BME280;3316;44.118;27.258;2024-03-08T11:08:44;101705.00;;;7.64;100.00
6565;BME280;3316;44.118;27.258;2024-03-08T11:11:24;101708.41;;;7.60;100.00
6565;BME280;3316;44.118;27.258;2024-03-08T11:13:53;101685.16;;;7.32;100.00
6565;BME280;3316;44.118;27.258;2024-03-08T11:16:37;101670.47;;;7.40;100.00
6565;BME280;3316;44.118;27.258;2024-03-08T11:19:26;101701.91;;;7.40;100.00
6565;BME280;3316;44.118;27.258;2024-03-08T11:21:58;101717.06;;;7.56;100.00
6565;BME280;3316;44.118;27.258;2024-03-08T11:24:23;101698.75;;;7.58;100.00
6565;BME280;3316;44.118;27.258;2024-03-08T11:26:49;101683.78;;;7.51;100.00
6565;BME280;3316;44.118;27.258;2024-03-08T11:32:15;101693.53;;;7.59;100.00
6565;BME280;3316;44.118;27.258;2024-03-08T11:34:45;101641.66;;;7.37;100.00
6565;BME280;3316;44.118;27.258;2024-03-08T11:37:13;101702.44;;;7.69;100.00
6565;BME280;3316;44.118;27.258;2024-03-08T11:39:40;101684.22;;;7.75;100.00
6565;BME280;3316;44.118;27.258;2024-03-08T11:42:11;101688.78;;;7.85;100.00
6565;BME280;3316;44.118;27.258;2024-03-08T11:44:37;101686.16;;;7.85;100.00
6565;BME280;3316;44.118;27.258;2024-03-08T11:47:08;101677.28;;;7.77;100.00
6565;BME280;3316;44.118;27.258;2024-03-08T11:49:34;101678.28;;;7.83;100.00
6565;BME280;3316;44.118;27.258;2024-03-08T11:51:59;101684.88;;;8.11;100.00
6565;BME280;3316;44.118;27.258;2024-03-08T11:54:25;101673.56;;;8.15;100.00
6565;BME280;3316;44.118;27.258;2024-03-08T11:56:51;101625.75;;;7.77;100.00
6565;BME280;3316;44.118;27.258;2024-03-08T11:59:17;101677.75;;;8.04;100.00
6565;BME280;3316;44.118;27.258;2024-03-08T12:01:43;101662.91;;;8.04;100.00
6565;BME280;3316;44.118;27.258;2024-03-08T12:04:12;101672.72;;;8.18;100.00
6565;BME280;3316;44.118;27.258;2024-03-08T12:06:39;101649.00;;;8.08;100.00
6565;BME280;3316;44.118;27.258;2024-03-08T12:09:11;101668.41;;;8.21;100.00
6565;BME280;3316;44.118;27.258;2024-03-08T12:11:38;101637.81;;;8.20;100.00
6565;BME280;3316;44.118;27.258;2024-03-08T12:14:04;101658.09;;;8.29;100.00
6565;BME280;3316;44.118;27.258;2024-03-08T12:16:30;101667.06;;;8.46;100.00
6565;BME280;3316;44.118;27.258;2024-03-08T12:18:56;101660.06;;;8.45;100.00
6565;BME280;3316;44.118;27.258;2024-03-08T12:21:21;101660.41;;;8.69;100.00
6565;BME280;3316;44.118;27.258;2024-03-08T12:24:03;101645.31;;;8.54;100.00
6565;BME280;3316;44.118;27.258;2024-03-08T12:26:28;101658.78;;;8.77;100.00
6565;BME280;3316;44.118;27.258;2024-03-08T12:29:14;101661.22;;;8.63;100.00
6565;BME280;3316;44.118;27.258;2024-03-08T12:31:42;101622.59;;;8.53;100.00
6565;BME280;3316;44.118;27.258;2024-03-08T12:34:08;101660.53;;;8.78;100.00
6565;BME280;3316;44.118;27.258;2024-03-08T12:36:35;101651.53;;;8.59;100.00
6565;BME280;3316;44.118;27.258;2024-03-08T12:39:01;101653.19;;;8.53;100.00
6565;BME280;3316;44.118;27.258;2024-03-08T12:41:29;101650.72;;;8.62;100.00
6565;BME280;3316;44.118;27.258;2024-03-08T12:43:54;101652.38;;;8.58;100.00
6565;BME280;3316;44.118;27.258;2024-03-08T12:46:21;101590.59;;;8.17;100.00
6565;BME280;3316;44.118;27.258;2024-03-08T12:48:51;101630.19;;;8.35;100.00
6565;BME280;3316;44.118;27.258;2024-03-08T12:51:20;101636.59;;;8.52;100.00
6565;BME280;3316;44.118;27.258;2024-03-08T12:53:46;101647.19;;;8.61;100.00
6565;BME280;3316;44.118;27.258;2024-03-08T12:56:13;101640.25;;;8.66;100.00
6565;BME280;3316;44.118;27.258;2024-03-08T12:58:39;101636.88;;;8.73;100.00
6565;BME280;3316;44.118;27.258;2024-03-08T13:01:06;101633.53;;;8.85;100.00
6565;BME280;3316;44.118;27.258;2024-03-08T13:03:35;101641.16;;;8.70;100.00
6565;BME280;3316;44.118;27.258;2024-03-08T13:06:02;101640.47;;;8.81;100.00
6565;BME280;3316;44.118;27.258;2024-03-08T13:08:29;101630.34;;;9.13;100.00